createdAt,value
2018-06-12T00:00:22.950Z,18.40
2018-06-12T00:02:53.594Z,18.34
2018-06-12T00:05:23.960Z,18.33
2018-06-12T00:07:53.710Z,18.28
2018-06-12T00:10:23.625Z,18.22
2018-06-12T00:12:53.386Z,18.39
2018-06-12T00:15:23.215Z,18.38
2018-06-12T00:17:53.131Z,18.33
2018-06-12T00:20:23.289Z,18.19
2018-06-12T00:22:53.129Z,18.25
2018-06-12T00:25:22.926Z,18.26
2018-06-12T00:27:52.852Z,18.29
2018-06-12T00:30:22.664Z,18.19
2018-06-12T00:32:52.606Z,18.24
2018-06-12T00:35:23.358Z,18.29
2018-06-12T00:37:53.396Z,18.20
2018-06-12T00:40:23.294Z,18.20
2018-06-12T00:42:53.372Z,17.95
2018-06-12T00:45:23.806Z,17.98
2018-06-12T00:47:53.706Z,17.92
2018-06-12T00:50:23.482Z,17.98
2018-06-12T00:52:53.352Z,17.88
2018-06-12T00:55:23.538Z,17.84
2018-06-12T00:57:53.470Z,17.88
2018-06-12T01:00:23.886Z,17.88
2018-06-12T01:02:54.385Z,17.92
2018-06-12T01:05:24.292Z,17.87
2018-06-12T01:07:54.114Z,17.87
2018-06-12T01:10:23.890Z,17.79
2018-06-12T01:12:53.689Z,17.73
2018-06-12T01:15:24.072Z,17.72
2018-06-12T01:17:53.954Z,17.68
2018-06-12T01:20:24.421Z,17.66
2018-06-12T01:22:55.186Z,17.76
2018-06-12T01:25:25.015Z,17.84
2018-06-12T01:27:55.088Z,17.74
2018-06-12T01:30:24.526Z,17.68
2018-06-12T01:32:54.658Z,17.75
2018-06-12T01:35:24.810Z,17.66
2018-06-12T01:37:54.788Z,17.62
2018-06-12T01:40:24.727Z,17.63
2018-06-12T01:42:54.812Z,17.63
2018-06-12T01:45:24.597Z,17.75
2018-06-12T01:47:54.399Z,17.71
2018-06-12T01:50:24.372Z,17.72
2018-06-12T01:52:55.864Z,17.76
2018-06-12T01:55:25.709Z,17.85
2018-06-12T01:57:55.548Z,17.87
2018-06-12T02:00:25.633Z,17.90
2018-06-12T02:02:55.473Z,17.96
2018-06-12T02:05:25.298Z,18.08
2018-06-12T02:07:55.192Z,17.96
2018-06-12T02:10:25.865Z,18.07
2018-06-12T02:12:55.683Z,18.02
2018-06-12T02:15:25.515Z,17.95
2018-06-12T02:17:55.359Z,18.09
2018-06-12T02:20:25.259Z,17.87
2018-06-12T02:22:56.851Z,18.04
2018-06-12T02:27:57.517Z,18.11
2018-06-12T02:30:27.340Z,18.05
2018-06-12T02:32:58.009Z,18.00
2018-06-12T02:35:27.839Z,17.96
2018-06-12T02:37:57.660Z,17.92
2018-06-12T02:40:27.470Z,18.03
2018-06-12T02:42:57.342Z,17.86
2018-06-12T02:45:27.193Z,17.94
2018-06-12T02:47:57.373Z,17.99
2018-06-12T02:50:27.259Z,18.10
2018-06-12T02:52:57.139Z,18.00
2018-06-12T02:55:27.018Z,17.99
2018-06-12T02:57:56.976Z,18.03
2018-06-12T03:00:26.774Z,18.03
2018-06-12T03:02:56.791Z,18.09
2018-06-12T03:05:26.599Z,18.08
2018-06-12T03:07:56.434Z,18.20
2018-06-12T03:10:26.315Z,18.18
2018-06-12T03:12:56.487Z,18.18
2018-06-12T03:15:26.294Z,18.17
2018-06-12T03:17:56.130Z,18.13
2018-06-12T03:20:42.690Z,18.11
2018-06-12T03:23:12.686Z,18.08
2018-06-12T03:25:42.646Z,18.03
2018-06-12T03:28:12.610Z,17.99
2018-06-12T03:30:42.438Z,18.05
2018-06-12T03:33:11.894Z,18.06
2018-06-12T03:35:41.692Z,18.03
2018-06-12T03:38:11.698Z,18.03
2018-06-12T03:40:41.619Z,18.00
2018-06-12T03:43:11.549Z,18.08
2018-06-12T03:45:41.702Z,18.08
2018-06-12T03:48:11.557Z,18.05
2018-06-12T03:50:41.439Z,18.02
2018-06-12T03:53:11.533Z,18.10
2018-06-12T03:55:41.317Z,18.19
2018-06-12T03:58:11.161Z,18.17
2018-06-12T04:00:41.039Z,18.17
2018-06-12T04:03:10.842Z,18.27
2018-06-12T04:05:41.507Z,18.30
2018-06-12T04:08:11.631Z,18.28
2018-06-12T04:10:41.465Z,18.10
2018-06-12T04:13:11.361Z,18.20
2018-06-12T04:15:41.245Z,18.24
2018-06-12T04:18:11.115Z,18.35
2018-06-12T04:20:41.199Z,18.29
2018-06-12T04:23:11.021Z,18.37
2018-06-12T04:25:41.063Z,18.41
2018-06-12T04:28:10.950Z,18.58
2018-06-12T04:30:40.739Z,18.44
2018-06-12T04:33:10.541Z,18.61
2018-06-12T04:35:40.446Z,18.66
2018-06-12T04:38:10.266Z,18.63
2018-06-12T04:40:41.249Z,18.57
2018-06-12T04:43:11.283Z,18.61
2018-06-12T04:45:41.085Z,18.52
2018-06-12T04:48:10.911Z,18.50
2018-06-12T04:50:40.727Z,18.51
2018-06-12T04:53:10.787Z,18.54
2018-06-12T04:55:40.911Z,18.31
2018-06-12T04:58:10.699Z,18.30
2018-06-12T05:00:40.599Z,18.19
2018-06-12T05:03:10.691Z,18.15
2018-06-12T05:05:40.527Z,18.18
2018-06-12T05:08:10.540Z,18.23
2018-06-12T05:10:40.730Z,18.27
2018-06-12T05:13:10.756Z,18.34
2018-06-12T05:15:41.155Z,18.40
2018-06-12T05:18:11.277Z,18.37
2018-06-12T05:20:41.451Z,18.44
2018-06-12T05:23:11.253Z,18.37
2018-06-12T05:25:41.137Z,18.45
2018-06-12T05:28:11.145Z,18.38
2018-06-12T05:30:40.995Z,18.48
2018-06-12T05:33:10.741Z,18.53
2018-06-12T05:35:40.539Z,18.52
2018-06-12T05:38:10.351Z,18.56
2018-06-12T05:40:40.210Z,18.55
2018-06-12T05:43:10.049Z,18.56
2018-06-12T05:45:39.949Z,18.56
2018-06-12T05:48:09.733Z,18.45
2018-06-12T05:50:39.519Z,18.56
2018-06-12T05:53:09.588Z,18.56
2018-06-12T05:55:39.542Z,18.56
2018-06-12T05:58:09.553Z,18.52
2018-06-12T06:00:39.679Z,18.57
2018-06-12T06:03:09.722Z,18.51
2018-06-12T06:05:39.499Z,18.64
2018-06-12T06:08:09.356Z,18.66
2018-06-12T06:10:39.307Z,18.58
2018-06-12T06:13:09.550Z,18.66
2018-06-12T06:15:39.336Z,18.68
2018-06-12T06:18:09.100Z,18.61
2018-06-12T06:20:38.521Z,18.51
2018-06-12T06:23:07.906Z,18.47
2018-06-12T06:25:37.728Z,18.59
2018-06-12T06:28:07.508Z,18.55
2018-06-12T06:30:37.719Z,18.59
2018-06-12T06:33:07.464Z,18.74
2018-06-12T06:35:37.242Z,18.83
2018-06-12T06:38:07.000Z,18.99
2018-06-12T06:40:36.832Z,19.18
2018-06-12T06:43:06.627Z,19.04
2018-06-12T06:45:36.676Z,18.99
2018-06-12T06:48:06.590Z,19.07
2018-06-12T06:50:36.336Z,19.22
2018-06-12T06:53:06.092Z,19.49
2018-06-12T06:55:36.390Z,19.83
2018-06-12T06:58:06.506Z,19.82
2018-06-12T07:00:36.810Z,19.67
2018-06-12T07:03:06.690Z,19.70
2018-06-12T07:05:37.071Z,19.64
2018-06-12T07:08:07.413Z,19.63
2018-06-12T07:10:37.141Z,19.55
2018-06-12T07:13:06.925Z,19.54
2018-06-12T07:15:37.274Z,19.56
2018-06-12T07:18:08.368Z,19.78
2018-06-12T07:21:21.553Z,20.02
2018-06-12T07:23:52.613Z,20.06
2018-06-12T07:26:23.777Z,20.02
2018-06-12T07:28:54.856Z,20.05
2018-06-12T07:31:26.027Z,19.77
2018-06-12T07:33:57.171Z,19.88
2018-06-12T07:36:28.391Z,19.85
2018-06-12T07:38:59.564Z,19.74
2018-06-12T07:41:30.746Z,19.84
2018-06-12T07:44:01.188Z,20.07
2018-06-12T07:46:32.315Z,20.20
2018-06-12T07:49:03.291Z,20.34
2018-06-12T07:51:34.300Z,20.48
2018-06-12T07:54:05.343Z,20.55
2018-06-12T07:56:36.418Z,20.71
2018-06-12T07:59:07.602Z,20.77
2018-06-12T08:01:38.636Z,20.92
2018-06-12T08:04:09.654Z,20.89
2018-06-12T08:06:40.655Z,20.80
2018-06-12T08:09:11.630Z,20.72
2018-06-12T08:11:42.722Z,20.72
2018-06-12T08:14:13.948Z,20.73
2018-06-12T08:16:45.051Z,20.45
2018-06-12T08:19:16.277Z,20.38
2018-06-12T08:21:47.445Z,20.14
2018-06-12T08:24:18.625Z,20.04
2018-06-12T08:26:49.728Z,20.05
2018-06-12T08:29:21.703Z,20.26
2018-06-12T08:31:52.833Z,20.26
2018-06-12T08:34:23.907Z,20.49
2018-06-12T08:36:54.955Z,20.80
2018-06-12T08:39:26.047Z,21.07
2018-06-12T08:41:57.223Z,21.07
2018-06-12T08:44:28.321Z,21.23
2018-06-12T08:46:59.425Z,21.27
2018-06-12T08:49:30.621Z,21.31
2018-06-12T08:52:01.844Z,21.34
2018-06-12T08:54:33.081Z,21.44
2018-06-12T08:57:04.126Z,21.60
2018-06-12T08:59:35.188Z,21.97
2018-06-12T09:02:07.077Z,22.24
2018-06-12T09:04:38.245Z,22.23
2018-06-12T09:07:09.356Z,22.17
2018-06-12T09:09:40.693Z,22.56
2018-06-12T09:12:12.087Z,22.51
2018-06-12T09:14:44.007Z,22.66
2018-06-12T09:17:15.233Z,23.02
2018-06-12T09:19:45.802Z,23.41
2018-06-12T09:22:16.825Z,23.62
2018-06-12T09:24:47.418Z,23.52
2018-06-12T09:27:18.615Z,23.60
2018-06-12T09:29:49.740Z,23.78
2018-06-12T09:32:20.806Z,24.04
2018-06-12T09:34:51.808Z,24.09
2018-06-12T09:37:22.871Z,24.28
2018-06-12T09:39:53.419Z,24.25
2018-06-12T09:42:24.542Z,24.34
2018-06-12T09:44:55.089Z,24.16
2018-06-12T09:47:26.172Z,24.28
2018-06-12T09:49:57.264Z,24.67
2018-06-12T09:52:27.750Z,25.21
2018-06-12T09:54:58.905Z,25.40
2018-06-12T09:57:30.020Z,25.04
2018-06-12T10:00:01.203Z,24.99
2018-06-12T10:02:32.349Z,24.91
2018-06-12T10:05:03.467Z,25.53
2018-06-12T10:07:34.529Z,25.32
2018-06-12T10:10:05.725Z,24.96
2018-06-12T10:12:36.813Z,24.96
2018-06-12T10:15:08.037Z,24.95
2018-06-12T10:17:39.339Z,24.87
2018-06-12T10:20:10.504Z,24.94
2018-06-12T10:22:41.559Z,24.65
2018-06-12T10:25:12.729Z,24.44
2018-06-12T10:27:44.042Z,24.17
2018-06-12T10:30:15.155Z,23.63
2018-06-12T10:32:46.282Z,23.41
2018-06-12T10:35:17.413Z,23.37
2018-06-12T10:37:48.555Z,23.49
2018-06-12T10:40:19.740Z,23.38
2018-06-12T10:42:51.043Z,23.43
2018-06-12T10:45:22.119Z,23.31
2018-06-12T10:47:53.307Z,23.09
2018-06-12T10:50:24.417Z,23.00
2018-06-12T10:52:55.649Z,22.88
2018-06-12T10:55:26.157Z,22.87
2018-06-12T10:57:57.267Z,22.71
2018-06-12T11:00:28.409Z,22.83
2018-06-12T11:02:59.537Z,22.66
2018-06-12T11:05:30.705Z,22.25
2018-06-12T11:08:01.895Z,22.48
2018-06-12T11:10:33.003Z,23.09
2018-06-12T11:13:04.311Z,23.54
2018-06-12T11:15:35.366Z,23.53
2018-06-12T11:18:07.496Z,23.76
2018-06-12T11:20:38.664Z,23.83
2018-06-12T11:23:09.843Z,23.97
2018-06-12T11:25:42.101Z,24.62
2018-06-12T11:28:13.165Z,25.18
2018-06-12T11:30:44.299Z,25.18
2018-06-12T11:33:15.479Z,24.89
2018-06-12T11:35:46.541Z,24.95
2018-06-12T11:38:17.691Z,24.69
2018-06-12T11:40:48.855Z,24.41
2018-06-12T11:43:19.895Z,24.25
2018-06-12T11:45:50.977Z,24.35
2018-06-12T11:48:22.156Z,24.35
2018-06-12T11:50:53.302Z,24.41
2018-06-12T11:53:24.333Z,24.43
2018-06-12T11:55:54.870Z,24.08
2018-06-12T11:58:25.963Z,24.11
2018-06-12T12:00:57.079Z,23.95
2018-06-12T12:03:28.126Z,24.03
2018-06-12T12:05:59.301Z,23.56
2018-06-12T12:08:31.207Z,23.46
2018-06-12T12:11:02.252Z,23.12
2018-06-12T12:13:33.419Z,23.07
2018-06-12T12:16:05.035Z,23.29
2018-06-12T12:18:35.944Z,23.67
2018-06-12T12:21:06.974Z,24.03
2018-06-12T12:23:38.118Z,24.51
2018-06-12T12:26:09.249Z,24.57
2018-06-12T12:28:40.400Z,24.56
2018-06-12T12:31:11.642Z,24.57
2018-06-12T12:33:42.733Z,24.91
2018-06-12T12:36:13.772Z,25.36
2018-06-12T12:38:44.886Z,25.62
2018-06-12T12:41:16.001Z,25.27
2018-06-12T12:43:47.125Z,25.05
2018-06-12T12:46:18.176Z,25.17
2018-06-12T12:48:49.229Z,25.15
2018-06-12T12:51:20.445Z,24.97
2018-06-12T12:53:52.183Z,25.14
2018-06-12T12:56:23.405Z,25.54
2018-06-12T12:58:54.529Z,25.63
2018-06-12T13:01:24.841Z,25.59
2018-06-12T13:03:55.509Z,25.82
2018-06-12T13:06:25.845Z,25.92
2018-06-12T13:08:56.217Z,25.80
2018-06-12T13:11:26.554Z,25.79
2018-06-12T13:15:26.249Z,25.53
2018-06-12T13:17:56.631Z,25.18
2018-06-12T13:20:27.029Z,25.16
2018-06-12T13:22:57.423Z,25.03
2018-06-12T13:25:27.786Z,25.00
2018-06-12T13:27:58.110Z,24.82
2018-06-12T13:30:28.460Z,24.48
2018-06-12T13:32:58.852Z,24.31
2018-06-12T13:35:30.068Z,24.08
2018-06-12T13:38:00.390Z,24.31
2018-06-12T13:40:30.742Z,24.56
2018-06-12T13:43:01.121Z,23.95
2018-06-12T13:45:31.481Z,23.86
2018-06-12T13:48:01.410Z,23.92
2018-06-12T13:50:31.712Z,23.87
2018-06-12T13:53:01.682Z,24.09
2018-06-12T13:55:32.166Z,24.47
2018-06-12T13:58:02.230Z,24.88
2018-06-12T14:00:32.602Z,24.70
2018-06-12T14:03:02.610Z,24.26
2018-06-12T14:05:33.004Z,24.26
2018-06-12T14:08:03.346Z,24.37
2018-06-12T14:10:33.697Z,24.14
2018-06-12T14:13:04.020Z,24.13
2018-06-12T14:15:34.364Z,24.09
2018-06-12T14:18:05.640Z,24.55
2018-06-12T14:20:36.004Z,24.56
2018-06-12T14:23:06.379Z,24.53
2018-06-12T14:25:36.732Z,24.10
2018-06-12T14:28:07.680Z,24.06
2018-06-12T14:30:38.238Z,23.62
2018-06-12T14:33:08.722Z,23.30
2018-06-12T14:35:39.158Z,23.05
2018-06-12T14:38:09.583Z,22.88
2018-06-12T14:40:40.000Z,22.81
2018-06-12T14:43:10.472Z,22.89
2018-06-12T14:45:41.198Z,22.97
2018-06-12T14:48:11.579Z,22.90
2018-06-12T14:50:41.982Z,22.91
2018-06-12T14:53:12.399Z,22.78
2018-06-12T14:55:42.886Z,22.87
2018-06-12T14:58:13.327Z,22.86
2018-06-12T15:00:43.766Z,22.99
2018-06-12T15:03:14.122Z,23.09
2018-06-12T15:05:44.520Z,23.03
2018-06-12T15:08:14.946Z,22.68
2018-06-12T15:10:45.340Z,22.62
2018-06-12T15:13:16.337Z,22.44
2018-06-12T15:15:46.662Z,22.39
2018-06-12T15:18:17.480Z,22.56
2018-06-12T15:20:47.852Z,22.60
2018-06-12T15:23:18.510Z,23.04
2018-06-12T15:25:49.174Z,23.44
2018-06-12T15:28:19.702Z,23.46
2018-06-12T15:30:50.077Z,23.64
2018-06-12T15:33:20.692Z,23.68
2018-06-12T15:35:51.303Z,23.97
2018-06-12T15:38:21.724Z,23.71
2018-06-12T15:40:52.072Z,23.44
2018-06-12T15:43:22.426Z,23.33
2018-06-12T15:45:52.804Z,23.01
2018-06-12T15:48:23.209Z,22.67
2018-06-12T15:50:53.544Z,22.42
2018-06-12T15:53:23.924Z,22.42
2018-06-12T15:55:54.618Z,22.29
2018-06-12T15:58:24.984Z,22.17
2018-06-12T16:00:55.422Z,22.07
2018-06-12T16:03:26.062Z,22.01
2018-06-12T16:05:56.460Z,21.99
2018-06-12T16:08:26.853Z,21.90
2018-06-12T16:10:57.168Z,21.90
2018-06-12T16:13:27.582Z,22.01
2018-06-12T16:15:57.942Z,21.95
2018-06-12T16:18:28.331Z,21.90
2018-06-12T16:20:58.767Z,21.84
2018-06-12T16:23:29.181Z,21.97
2018-06-12T16:25:59.710Z,21.88
2018-06-12T16:28:30.216Z,21.70
2018-06-12T16:31:01.008Z,21.55
2018-06-12T16:33:31.404Z,21.65
2018-06-12T16:36:02.518Z,21.60
2018-06-12T16:38:33.128Z,21.36
2018-06-12T16:41:03.734Z,21.29
2018-06-12T16:43:33.781Z,21.14
2018-06-12T16:46:04.141Z,21.05
2018-06-12T16:48:34.530Z,20.96
2018-06-12T16:51:04.898Z,20.83
2018-06-12T16:53:35.357Z,20.84
2018-06-12T16:56:05.812Z,20.96
2018-06-12T16:58:36.245Z,20.83
2018-06-12T17:01:06.879Z,20.97
2018-06-12T17:03:37.372Z,21.04
2018-06-12T17:06:07.670Z,21.07
2018-06-12T17:08:38.536Z,21.07
2018-06-12T17:11:08.935Z,21.02
2018-06-12T17:13:40.043Z,21.17
2018-06-12T17:16:10.250Z,21.09
2018-06-12T17:18:40.665Z,20.99
2018-06-12T17:21:11.734Z,21.04
2018-06-12T17:23:42.140Z,20.82
2018-06-12T17:26:12.526Z,20.98
2018-06-12T17:28:43.196Z,20.87
2018-06-12T17:31:13.795Z,20.79
2018-06-12T17:33:44.248Z,20.87
2018-06-12T17:36:14.620Z,20.75
2018-06-12T17:38:45.200Z,20.68
2018-06-12T17:41:15.928Z,20.69
2018-06-12T17:43:46.338Z,20.74
2018-06-12T17:46:16.697Z,20.60
2018-06-12T17:48:47.370Z,20.50
2018-06-12T17:51:17.728Z,20.51
2018-06-12T17:53:48.193Z,20.51
2018-06-12T17:56:18.582Z,20.54
2018-06-12T17:58:48.988Z,20.52
2018-06-12T18:01:19.918Z,20.23
2018-06-12T18:03:50.324Z,19.53
2018-06-12T18:06:20.202Z,18.88
2018-06-12T18:08:50.092Z,18.71
2018-06-12T18:11:19.907Z,18.43
2018-06-12T18:13:50.044Z,18.17
2018-06-12T18:16:19.826Z,17.88
2018-06-12T18:18:50.342Z,17.38
2018-06-12T18:21:20.236Z,17.06
2018-06-12T18:23:50.078Z,16.79
2018-06-12T18:26:20.311Z,16.64
2018-06-12T18:28:50.208Z,16.46
2018-06-12T18:31:20.668Z,16.50
2018-06-12T18:33:50.432Z,16.44
2018-06-12T18:36:20.616Z,16.42
2018-06-12T18:38:50.444Z,16.28
2018-06-12T18:41:20.180Z,16.34
2018-06-12T18:43:50.088Z,16.38
2018-06-12T18:46:20.014Z,16.37
2018-06-12T18:48:49.442Z,16.35
2018-06-12T18:51:19.247Z,16.40
2018-06-12T18:53:49.203Z,16.39
2018-06-12T18:56:18.986Z,16.44
2018-06-12T18:58:48.761Z,16.53
2018-06-12T19:01:18.597Z,16.94
2018-06-12T19:03:48.976Z,17.18
2018-06-12T19:06:19.076Z,17.47
2018-06-12T19:08:48.947Z,17.63
2018-06-12T19:11:18.823Z,17.79
2018-06-12T19:13:48.869Z,17.93
2018-06-12T19:16:18.761Z,17.97
2018-06-12T19:18:48.655Z,17.97
2018-06-12T19:21:18.551Z,18.08
2018-06-12T19:23:48.429Z,17.67
2018-06-12T19:26:18.377Z,17.76
2018-06-12T19:28:48.175Z,17.96
2018-06-12T19:31:17.645Z,18.01
2018-06-12T19:33:47.793Z,18.10
2018-06-12T19:36:18.437Z,18.16
2018-06-12T19:38:48.369Z,17.89
2018-06-12T19:41:18.435Z,17.99
2018-06-12T19:43:48.338Z,18.19
2018-06-12T19:46:18.236Z,18.18
2018-06-12T19:48:48.470Z,18.07
2018-06-12T19:51:18.455Z,18.19
2018-06-12T19:53:48.329Z,18.23
2018-06-12T19:56:18.465Z,18.14
2018-06-12T19:58:48.407Z,18.25
2018-06-12T20:01:18.183Z,18.29
2018-06-12T20:03:47.971Z,17.91
2018-06-12T20:06:17.922Z,18.05
2018-06-12T20:08:47.841Z,18.14
2018-06-12T20:11:17.641Z,18.33
2018-06-12T20:13:47.147Z,18.32
2018-06-12T20:16:16.998Z,18.34
2018-06-12T20:18:46.835Z,18.28
2018-06-12T20:21:16.661Z,18.28
2018-06-12T20:23:46.541Z,18.24
2018-06-12T20:26:16.439Z,18.33
2018-06-12T20:28:46.513Z,17.73
2018-06-12T20:31:16.441Z,17.66
2018-06-12T20:33:46.401Z,17.68
2018-06-12T20:36:16.519Z,17.81
2018-06-12T20:38:46.736Z,17.94
2018-06-12T20:41:16.571Z,18.10
2018-06-12T20:43:46.575Z,18.04
2018-06-12T20:46:16.371Z,18.09
2018-06-12T20:48:46.263Z,18.15
2018-06-12T20:51:16.738Z,18.29
2018-06-12T20:53:46.523Z,18.29
2018-06-12T20:56:17.048Z,18.36
2018-06-12T20:58:46.979Z,18.16
2018-06-12T21:01:16.767Z,18.20
2018-06-12T21:03:46.571Z,18.18
2018-06-12T21:06:16.068Z,18.10
2018-06-12T21:08:46.085Z,18.16
2018-06-12T21:11:16.177Z,18.17
2018-06-12T21:13:46.001Z,18.12
2018-06-12T21:16:15.881Z,18.18
2018-06-12T21:18:45.695Z,18.10
2018-06-12T21:21:16.031Z,18.20
2018-06-12T21:23:45.825Z,17.84
2018-06-12T21:26:15.629Z,17.51
2018-06-12T21:28:45.535Z,17.41
2018-06-12T21:31:16.271Z,17.28
2018-06-12T21:33:46.053Z,17.30
2018-06-12T21:36:16.229Z,17.43
2018-06-12T21:38:46.323Z,17.27
2018-06-12T21:41:16.145Z,17.15
2018-06-12T21:43:45.945Z,16.97
2018-06-12T21:46:15.908Z,16.81
2018-06-12T21:48:45.797Z,16.72
2018-06-12T21:51:15.631Z,16.71
2018-06-12T21:53:46.371Z,16.64
2018-06-12T21:56:16.321Z,16.65
2018-06-12T21:58:46.169Z,16.62
2018-06-12T22:01:16.426Z,16.63
2018-06-12T22:03:46.593Z,16.56
2018-06-12T22:06:16.436Z,16.47
2018-06-12T22:08:46.558Z,16.45
2018-06-12T22:11:16.344Z,16.64
2018-06-12T22:13:46.534Z,16.83
2018-06-12T22:16:23.530Z,17.02
2018-06-12T22:18:53.888Z,17.28
2018-06-12T22:21:23.682Z,17.32
2018-06-12T22:23:54.029Z,17.34
2018-06-12T22:26:58.450Z,17.55
2018-06-12T22:29:28.280Z,17.57
2018-06-12T22:31:58.717Z,17.64
2018-06-12T22:34:28.976Z,17.49
2018-06-12T22:36:58.880Z,17.53
2018-06-12T22:39:29.299Z,17.55
2018-06-12T22:41:59.285Z,17.51
2018-06-12T22:44:29.543Z,17.32
2018-06-12T22:46:59.358Z,17.46
2018-06-12T22:49:29.226Z,17.69
2018-06-12T22:51:59.182Z,17.61
2018-06-12T22:54:29.110Z,17.53
2018-06-12T22:56:59.549Z,17.47
2018-06-12T22:59:29.416Z,17.59
2018-06-12T23:01:59.418Z,17.53
2018-06-12T23:04:29.244Z,17.51
2018-06-12T23:06:59.028Z,17.55
2018-06-12T23:09:28.895Z,17.57
2018-06-12T23:11:58.732Z,17.76
2018-06-12T23:14:28.659Z,17.64
2018-06-12T23:16:58.456Z,17.34
2018-06-12T23:19:28.342Z,17.03
2018-06-12T23:22:01.510Z,17.04
2018-06-12T23:24:31.241Z,17.12
2018-06-12T23:27:00.984Z,17.29
2018-06-12T23:29:30.674Z,17.44
2018-06-12T23:32:00.484Z,17.56
2018-06-12T23:34:30.273Z,17.51
2018-06-12T23:37:00.009Z,17.50
2018-06-12T23:39:29.764Z,17.46
2018-06-12T23:41:59.674Z,17.35
2018-06-12T23:44:29.411Z,17.26
2018-06-12T23:46:59.127Z,17.35
2018-06-12T23:49:28.895Z,17.22
2018-06-12T23:51:58.640Z,17.25
2018-06-12T23:54:28.359Z,17.45
2018-06-12T23:56:58.126Z,17.51
2018-06-12T23:59:27.821Z,17.52
